Peru, IL

8:18 AM CDT on August 23, 2017 (GMT -0500)
Illinois Valley Regional-Duncan

Weather History for KVYS - October, 2012

Change the Weather History Date:

Thursday, October 11, 2012

  Actual Average Record
Temperature  
Mean Temperature 51 °F -  
Max Temperature 66 °F 64 °F 84 °F (1973)
Min Temperature 36 °F 40 °F 25 °F (1987)
Degree Days  
Heating Degree Days 14    
Growing Degree Days 1 (Base 50)    
Moisture  
Dew Point 35 °F    
Average Humidity 57    
Maximum Humidity 83    
Minimum Humidity 33    
Precipitation  
Precipitation 0.00 in - - ()
Sea Level Pressure  
Sea Level Pressure 30.13 in    
Wind  
Wind Speed 11 mph (SW)    
Max Wind Speed 21 mph    
Max Gust Speed 26 mph    
Visibility 10 miles    
Events      
Averages and records for this station are not official NWS values.
T = Trace of Precipitation, MM = Missing Value Source: NWS Daily Summary

Daily Weather History Graph

Daily Weather History Graph

Search for Another Location

Airport or City:

Trip Planner

Search our weather history database for the weather conditions in past years. The results will help you decide how hot, cold, wet, or windy it might be!

Date:

Astronomy

Oct. 11, 2012 Rise Set
Actual Time 7:04 AM CDT 6:21 PM CDT
Civil Twilight 6:36 AM CDT 6:48 PM CDT
Nautical Twilight 6:04 AM CDT 7:20 PM CDT
Astronomical Twilight 5:32 AM CDT 7:52 PM CDT
Moon 2:40 AM CDT (10/11) 3:59 PM CDT (10/11)
Length of Visible Light 12h 12m
Length of Day
11h 16m
Waning Crescent, 18% of the Moon is Illuminated
Oct 11
Waning Crescent
Oct 15
New
Oct 21
First Quarter
Oct 29
Full
Nov 6
Last Quarter

Hourly Weather History & Observations

Time (CDT) Temp. Windchill Dew Point Humidity Pressure Visibility Wind Dir Wind Speed Gust Speed Precip Events Conditions
12:15 AM 36.5 °F 31.0 °F 29.8 °F 77% 30.17 in 10.0 mi South 6.9 mph - N/A   Clear
12:35 AM 37.8 °F 32.5 °F 30.0 °F 74% 30.17 in 10.0 mi SSW 6.9 mph - N/A   Clear
12:55 AM 39.2 °F 35.0 °F 30.2 °F 70% 30.17 in 10.0 mi SSW 5.8 mph - N/A   Clear
1:15 AM 39.2 °F 35.0 °F 30.2 °F 70% 30.16 in 10.0 mi South 5.8 mph - N/A   Clear
1:35 AM 38.1 °F 32.9 °F 29.8 °F 72% 30.16 in 10.0 mi South 6.9 mph - N/A   Clear
1:55 AM 38.5 °F 32.7 °F 29.8 °F 71% 30.16 in 10.0 mi SSW 8.1 mph - N/A   Clear
2:15 AM 37.2 °F 30.6 °F 29.7 °F 74% 30.16 in 10.0 mi SSW 9.2 mph - N/A   Clear
2:35 AM 39.0 °F 31.8 °F 30.9 °F 73% 30.15 in 10.0 mi SSW 11.5 mph - N/A   Clear
2:55 AM 37.9 °F 30.9 °F 30.4 °F 74% 30.15 in 10.0 mi SSW 10.4 mph - N/A   Clear
3:15 AM 38.1 °F 31.7 °F 31.1 °F 76% 30.15 in 10.0 mi SSW 9.2 mph - N/A   Clear
3:35 AM 36.9 °F 29.6 °F 30.7 °F 79% 30.15 in 10.0 mi SSW 10.4 mph - N/A   Clear
3:55 AM 37.8 °F 31.3 °F 31.1 °F 77% 30.15 in 10.0 mi SSW 9.2 mph - N/A   Clear
4:15 AM 37.4 °F 29.3 °F 31.1 °F 78% 30.15 in 10.0 mi SSW 12.7 mph - N/A   Clear
4:35 AM 38.3 °F 31.4 °F 31.6 °F 77% 30.15 in 10.0 mi SSW 10.4 mph - N/A   Clear
4:55 AM 37.8 °F 31.3 °F 31.6 °F 79% 30.15 in 10.0 mi SSW 9.2 mph - N/A   Clear
5:15 AM 37.9 °F 32.1 °F 31.6 °F 78% 30.15 in 10.0 mi SW 8.1 mph - N/A   Clear
5:35 AM 38.3 °F 31.9 °F 31.5 °F 76% 30.14 in 10.0 mi SW 9.2 mph - N/A   Clear
5:55 AM 37.8 °F 32.5 °F 31.8 °F 79% 30.14 in 10.0 mi SW 6.9 mph - N/A   Clear
6:15 AM 37.9 °F 31.5 °F 31.8 °F 79% 30.15 in 10.0 mi SW 9.2 mph - N/A   Clear
6:35 AM 37.8 °F 30.7 °F 31.6 °F 79% 30.15 in 10.0 mi SSW 10.4 mph - N/A   Clear
6:55 AM 36.7 °F 29.9 °F 31.8 °F 83% 30.14 in 10.0 mi South 9.2 mph - N/A   Clear
7:15 AM 37.2 °F 29.6 °F 32.0 °F 81% 30.13 in 10.0 mi SSW 11.5 mph - N/A   Clear
7:35 AM 40.1 °F 33.6 °F 32.2 °F 73% 30.14 in 10.0 mi SSW 10.4 mph - N/A   Clear
7:55 AM 41.0 °F 34.7 °F 32.9 °F 73% 30.15 in 10.0 mi SSW 10.4 mph - N/A   Clear
8:15 AM 42.8 °F 36.6 °F 33.4 °F 70% 30.15 in 10.0 mi SSW 11.5 mph - N/A   Clear
8:35 AM 44.4 °F 38.2 °F 34.7 °F 69% 30.15 in 10.0 mi SSW 12.7 mph - N/A   Clear
8:55 AM 47.8 °F - 34.7 °F 60% 30.14 in 10.0 mi SW 15.0 mph - N/A   Clear
9:15 AM 49.8 °F - 34.5 °F 56% 30.15 in 10.0 mi SW 18.4 mph 21.9 mph N/A   Clear
9:35 AM 51.4 °F - 34.2 °F 52% 30.15 in 10.0 mi SSW 15.0 mph - N/A   Clear
9:55 AM 52.5 °F - 34.0 °F 49% 30.15 in 10.0 mi SSW 17.3 mph - N/A   Clear
10:15 AM 54.0 °F - 35.2 °F 49% 30.15 in 10.0 mi SW 13.8 mph 20.7 mph N/A   Clear
10:35 AM 55.0 °F - 34.5 °F 46% 30.14 in 10.0 mi SSW 18.4 mph 24.2 mph N/A   Clear
10:55 AM 55.4 °F - 34.0 °F 44% 30.13 in 10.0 mi SSW 18.4 mph - N/A   Clear
11:15 AM 57.7 °F - 35.1 °F 43% 30.13 in 10.0 mi SW 20.7 mph - N/A   Clear
11:35 AM 58.6 °F - 35.2 °F 42% 30.13 in 10.0 mi SW 19.6 mph 25.3 mph N/A   Clear
11:55 AM 60.1 °F - 35.6 °F 40% 30.13 in 10.0 mi SW 18.4 mph 23.0 mph N/A   Clear
12:15 PM 60.6 °F - 36.0 °F 40% 30.12 in 10.0 mi WSW 20.7 mph 26.5 mph N/A   Clear
12:35 PM 62.6 °F - 37.4 °F 39% 30.11 in 10.0 mi SW 19.6 mph 24.2 mph N/A   Clear
12:55 PM 61.7 °F - 35.8 °F 38% 30.09 in 10.0 mi SW 17.3 mph - N/A   Clear
1:15 PM 62.1 °F - 35.8 °F 38% 30.09 in 10.0 mi SW 18.4 mph 26.5 mph N/A   Clear
1:35 PM 63.0 °F - 36.0 °F 37% 30.09 in 10.0 mi SW 19.6 mph 25.3 mph N/A   Clear
1:55 PM 63.7 °F - 35.6 °F 35% 30.08 in 10.0 mi SW 19.6 mph 24.2 mph N/A   Clear
2:15 PM 64.4 °F - 35.6 °F 34% 30.08 in 10.0 mi SW 16.1 mph 23.0 mph N/A   Clear
2:35 PM 65.1 °F - 35.6 °F 33% 30.07 in 10.0 mi SW 17.3 mph 26.5 mph N/A   Clear
2:55 PM 65.7 °F - 36.0 °F 33% 30.06 in 10.0 mi WSW 18.4 mph 23.0 mph N/A   Clear
3:15 PM 65.3 °F - 36.0 °F 34% 30.07 in 10.0 mi SW 18.4 mph 24.2 mph N/A   Clear
3:35 PM 66.2 °F - 36.1 °F 33% 30.06 in 10.0 mi SW 19.6 mph 24.2 mph N/A   Clear
3:55 PM 66.2 °F - 36.5 °F 33% 30.06 in 10.0 mi SW 16.1 mph 21.9 mph N/A   Clear
4:15 PM 66.2 °F - 36.7 °F 34% 30.06 in 10.0 mi SW 13.8 mph 20.7 mph N/A   Clear
4:35 PM 66.2 °F - 36.5 °F 33% 30.06 in 10.0 mi WSW 13.8 mph 21.9 mph N/A   Clear
4:55 PM 66.2 °F - 37.4 °F 35% 30.07 in 10.0 mi SW 13.8 mph 18.4 mph N/A   Clear
5:15 PM 64.4 °F - 37.4 °F 37% 30.07 in 10.0 mi SW 10.4 mph - N/A   Clear
5:35 PM 63.9 °F - 38.1 °F 39% 30.07 in 10.0 mi SW 10.4 mph - N/A   Clear
5:55 PM 63.1 °F - 39.0 °F 41% 30.07 in 10.0 mi SW 8.1 mph - N/A   Clear
6:15 PM 62.6 °F - 39.2 °F 42% 30.06 in 10.0 mi South 8.1 mph - N/A   Clear
6:35 PM 60.1 °F - 40.8 °F 49% 30.06 in 10.0 mi South 6.9 mph - N/A   Mostly Cloudy
6:55 PM 60.1 °F - 40.1 °F 48% 30.08 in 10.0 mi SW 8.1 mph - N/A   Scattered Clouds
7:15 PM 59.4 °F - 40.8 °F 50% 30.08 in 10.0 mi SSW 6.9 mph - N/A   Scattered Clouds
7:35 PM 57.9 °F - 41.4 °F 54% 30.12 in 10.0 mi WNW 11.5 mph 19.6 mph N/A   Scattered Clouds
7:55 PM 57.2 °F - 39.2 °F 51% 30.13 in 10.0 mi North 17.3 mph 25.3 mph N/A   Scattered Clouds
8:15 PM 55.8 °F - 38.5 °F 52% 30.14 in 10.0 mi North 12.7 mph 18.4 mph N/A   Scattered Clouds
8:35 PM 55.0 °F - 38.3 °F 53% 30.16 in 10.0 mi North 10.4 mph - N/A   Scattered Clouds
8:55 PM 54.7 °F - 38.8 °F 55% 30.17 in 10.0 mi North 17.3 mph 21.9 mph N/A   Scattered Clouds
9:15 PM 53.4 °F - 39.6 °F 59% 30.18 in 10.0 mi NNE 15.0 mph 21.9 mph N/A   Clear
9:35 PM 52.2 °F - 39.4 °F 62% 30.20 in 10.0 mi NNE 13.8 mph - N/A   Clear
9:55 PM 51.3 °F - 39.2 °F 63% 30.20 in 10.0 mi NNE 13.8 mph 19.6 mph N/A   Clear
10:35 PM 49.3 °F - 37.4 °F 64% 30.24 in 10.0 mi NNE 10.4 mph - N/A   Scattered Clouds
10:55 PM 49.3 °F - 36.1 °F 61% 30.25 in 10.0 mi NNE 15.0 mph - N/A   Mostly Cloudy
11:15 PM 49.1 °F - 37.2 °F 64% 30.25 in 10.0 mi NE 11.5 mph - N/A   Overcast
11:35 PM 48.6 °F - 35.6 °F 61% 30.27 in 10.0 mi NNE 13.8 mph - N/A   Overcast
11:55 PM 48.0 °F - 36.1 °F 63% 30.26 in 10.0 mi NNE 12.7 mph - N/A   Overcast